Peotone, IL

4:47 PM CST on February 13, 2016 (GMT -0600)
The Sommerfelds | | Change Station
CLOSE
Current Station
Personal Weather Station
Location: Peotone, IL
Elevation: 715 ft
Nearby Weather Stations

Elev 715 ft 41.33 °N, 87.79 °W | Updated 43 seconds ago

Clear
Clear
16.9 °F
Feels Like 17 °F
N
2.3
Wind Variable Wind from NNW
Gusts 3.4 mph

Today
High -- | Low -- °F
--% Chance of Precip.
Yesterday
High -- | Low -- °F
Precip. -- in
Pressure 30.53 in
Visibility 10.0 miles
Clouds Clear
Windchill 17 °F
Dew Point 0 °F
Humidity 47%
Rainfall 0.00 in
Snow Depth Not available.
6:49 AM 5:22 PM
Waxing Crescent, 35% visible
METAR KIKK 132235Z AUTO 32004KT 10SM CLR M08/M20 A3053 RMK AO2 T10801200
Pressure 30.53 in
Visibility 10.0 miles
Clouds Clear
Windchill 17 °F
Dew Point 0 °F
Humidity 47%
Rainfall 0.00 in
Snow Depth Not available.
6:49 AM 5:22 PM
Waxing Crescent, 35% visible
METAR KIKK 132235Z AUTO 32004KT 10SM CLR M08/M20 A3053 RMK AO2 T10801200

10-Day Weather Forecast

Almanac

Astronomy

Feb. 13, 2016 Rise Set
Actual Time
Civil Twilight
Nautical Twilight
Astronomical Twilight
Moon
Length of Visible Light
Length of Day
Tomorrow will be .
, % of the Moon is Illuminated

Today's Extremes

State Highs State Lows

Community

WunderPhotos

Upload Photos

1,892,689 photos uploaded!

WunderBlog® & News

Nearby

Air Quality

  Air Quality AQ Index Pollutant
Not available.

Snow Depth

Station Depth Elevation

Earthquake Activity

City Distance Mag. Time & Date
Minimum magnitude displayed is 2.5.

Coastal Water Temperatures

Place Temperature

Stations

Nearby Weather Stations

Station Location Temp. Windchill Dew Point Humidity Wind Precip. Elev Updated Type
                   

Watches & Warnings

There are currently no watches in effect.